createdAt,value
2018-02-10T00:00:13.426Z,91.39
2018-02-10T00:01:13.485Z,91.29
2018-02-10T00:02:13.460Z,91.10
2018-02-10T00:03:13.475Z,91.01
2018-02-10T00:04:13.415Z,91.29
2018-02-10T00:05:13.427Z,91.20
2018-02-10T00:06:13.428Z,90.63
2018-02-10T00:07:13.408Z,91.01
2018-02-10T00:08:13.428Z,91.01
2018-02-10T00:09:13.440Z,91.29
2018-02-10T00:10:13.417Z,90.82
2018-02-10T00:11:13.398Z,91.10
2018-02-10T00:12:13.400Z,90.91
2018-02-10T00:13:13.402Z,91.10
2018-02-10T00:14:13.389Z,91.20
2018-02-10T00:15:13.488Z,91.29
2018-02-10T00:16:13.497Z,91.29
2018-02-10T00:17:13.539Z,90.34
2018-02-10T00:18:13.431Z,91.20
2018-02-10T00:19:13.442Z,91.10
2018-02-10T00:20:13.369Z,91.01
2018-02-10T00:21:13.365Z,91.10
2018-02-10T00:22:13.363Z,90.91
2018-02-10T00:23:13.374Z,91.01
2018-02-10T00:24:13.362Z,90.72
2018-02-10T00:25:13.344Z,91.39
2018-02-10T00:26:13.373Z,90.72
2018-02-10T00:27:13.370Z,90.63
2018-02-10T00:28:13.509Z,91.10
2018-02-10T00:29:13.352Z,91.29
2018-02-10T00:30:13.337Z,90.72
2018-02-10T00:31:13.361Z,90.91
2018-02-10T00:32:13.326Z,90.44
2018-02-10T00:33:13.367Z,91.01
2018-02-10T00:34:13.371Z,90.82
2018-02-10T00:35:13.355Z,91.58
2018-02-10T00:36:13.342Z,91.10
2018-02-10T00:37:13.307Z,91.39
2018-02-10T00:38:13.300Z,90.72
2018-02-10T00:39:13.337Z,91.39
2018-02-10T00:40:13.336Z,91.10
2018-02-10T00:41:13.318Z,91.10
2018-02-10T00:42:13.329Z,91.39
2018-02-10T00:43:13.295Z,91.48
2018-02-10T00:44:13.296Z,91.01
2018-02-10T00:45:13.296Z,91.39
2018-02-10T00:46:13.289Z,91.91
2018-02-10T00:47:13.275Z,91.77
2018-02-10T00:48:13.277Z,91.72
2018-02-10T00:49:13.300Z,91.72
2018-02-10T00:50:13.265Z,92.05
2018-02-10T00:51:13.267Z,91.67
2018-02-10T00:52:13.297Z,91.86
2018-02-10T00:53:13.261Z,92.05
2018-02-10T00:54:13.251Z,91.77
2018-02-10T00:55:13.252Z,91.96
2018-02-10T00:56:13.249Z,91.77
2018-02-10T00:57:13.243Z,91.67
2018-02-10T00:58:13.248Z,91.39
2018-02-10T00:59:13.256Z,90.91
2018-02-10T01:00:13.259Z,91.10
2018-02-10T01:01:13.227Z,91.10
2018-02-10T01:02:13.320Z,91.10
2018-02-10T01:03:13.221Z,91.10
2018-02-10T01:04:13.241Z,91.10
2018-02-10T01:05:13.227Z,90.91
2018-02-10T01:06:13.211Z,90.82
2018-02-10T01:07:13.213Z,91.20
2018-02-10T01:08:13.208Z,91.29
2018-02-10T01:09:13.222Z,91.29
2018-02-10T01:10:13.212Z,91.39
2018-02-10T01:11:13.234Z,91.01
2018-02-10T01:12:13.214Z,91.39
2018-02-10T01:13:13.200Z,91.29
2018-02-10T01:14:13.204Z,91.58
2018-02-10T01:15:13.294Z,91.39
2018-02-10T01:16:13.191Z,90.82
2018-02-10T01:17:13.216Z,91.29
2018-02-10T01:18:13.184Z,91.29
2018-02-10T01:19:13.172Z,91.48
2018-02-10T01:20:13.183Z,91.39
2018-02-10T01:21:13.176Z,91.67
2018-02-10T01:22:13.174Z,91.86
2018-02-10T01:23:13.196Z,91.77
2018-02-10T01:24:13.179Z,91.86
2018-02-10T01:25:13.167Z,91.77
2018-02-10T01:26:13.160Z,91.48
2018-02-10T01:27:13.147Z,91.72
2018-02-10T01:28:13.684Z,91.72
2018-02-10T01:29:13.145Z,92.38
2018-02-10T01:30:13.179Z,92.00
2018-02-10T01:31:13.143Z,92.29
2018-02-10T01:32:13.136Z,92.52
2018-02-10T01:33:13.138Z,91.58
2018-02-10T01:34:13.132Z,91.86
2018-02-10T01:35:13.116Z,91.48
2018-02-10T01:36:13.126Z,91.48
2018-02-10T01:37:13.119Z,91.48
2018-02-10T01:38:13.128Z,91.62
2018-02-10T01:39:13.136Z,92.10
2018-02-10T01:40:13.118Z,92.24
2018-02-10T01:41:13.100Z,92.29
2018-02-10T01:42:13.116Z,92.52
2018-02-10T01:43:13.106Z,92.43
2018-02-10T01:44:13.091Z,92.61
2018-02-10T01:45:13.092Z,92.43
2018-02-10T01:46:13.104Z,92.24
2018-02-10T01:47:13.083Z,92.24
2018-02-10T01:48:13.105Z,92.14
2018-02-10T01:49:13.148Z,92.14
2018-02-10T01:50:13.084Z,92.00
2018-02-10T01:51:13.072Z,92.29
2018-02-10T01:52:13.072Z,92.00
2018-02-10T01:53:13.062Z,92.14
2018-02-10T01:54:13.067Z,92.43
2018-02-10T01:55:13.063Z,92.14
2018-02-10T01:56:13.053Z,92.05
2018-02-10T01:57:13.088Z,92.05
2018-02-10T01:58:13.052Z,92.33
2018-02-10T01:59:13.065Z,92.24
2018-02-10T02:00:13.044Z,92.43
2018-02-10T02:01:13.072Z,92.24
2018-02-10T02:02:13.682Z,92.24
2018-02-10T02:03:13.043Z,92.14
2018-02-10T02:04:13.037Z,92.52
2018-02-10T02:05:13.022Z,92.52
2018-02-10T02:06:13.020Z,92.52
2018-02-10T02:07:13.036Z,92.05
2018-02-10T02:08:13.026Z,92.52
2018-02-10T02:09:13.026Z,91.67
2018-02-10T02:10:13.028Z,92.43
2018-02-10T02:11:13.016Z,92.43
2018-02-10T02:12:12.997Z,91.67
2018-02-10T02:13:13.030Z,91.96
2018-02-10T02:14:13.017Z,91.48
2018-02-10T02:15:13.686Z,91.58
2018-02-10T02:16:12.988Z,92.24
2018-02-10T02:17:12.984Z,92.43
2018-02-10T02:18:12.992Z,92.33
2018-02-10T02:19:13.002Z,91.67
2018-02-10T02:20:12.991Z,92.05
2018-02-10T02:21:13.001Z,91.58
2018-02-10T02:22:12.974Z,91.58
2018-02-10T02:23:12.967Z,91.58
2018-02-10T02:24:12.965Z,91.77
2018-02-10T02:25:13.005Z,92.24
2018-02-10T02:26:12.967Z,92.43
2018-02-10T02:27:12.969Z,92.14
2018-02-10T02:28:12.950Z,92.14
2018-02-10T02:29:12.972Z,92.43
2018-02-10T02:30:12.943Z,92.33
2018-02-10T02:31:12.959Z,92.05
2018-02-10T02:32:12.934Z,91.48
2018-02-10T02:33:12.945Z,91.58
2018-02-10T02:34:12.933Z,91.67
2018-02-10T02:35:12.933Z,91.67
2018-02-10T02:36:12.948Z,91.96
2018-02-10T02:37:12.922Z,91.67
2018-02-10T02:38:12.920Z,92.05
2018-02-10T02:39:12.915Z,91.77
2018-02-10T02:40:12.933Z,91.39
2018-02-10T02:41:12.903Z,91.39
2018-02-10T02:42:12.922Z,91.77
2018-02-10T02:43:12.913Z,92.05
2018-02-10T02:44:12.903Z,91.86
2018-02-10T02:45:12.898Z,91.86
2018-02-10T02:46:12.892Z,91.77
2018-02-10T02:47:13.537Z,91.58
2018-02-10T02:48:12.894Z,91.10
2018-02-10T02:49:12.894Z,91.58
2018-02-10T02:50:12.909Z,91.48
2018-02-10T02:51:12.892Z,91.48
2018-02-10T02:52:12.870Z,91.48
2018-02-10T02:53:12.880Z,91.39
2018-02-10T02:54:12.864Z,91.48
2018-02-10T02:55:12.907Z,91.20
2018-02-10T02:56:12.882Z,91.20
2018-02-10T02:57:12.890Z,91.01
2018-02-10T02:58:12.865Z,91.58
2018-02-10T02:59:12.861Z,91.77
2018-02-10T03:00:12.858Z,91.77
2018-02-10T03:01:12.876Z,91.10
2018-02-10T03:02:12.881Z,91.29
2018-02-10T03:03:12.836Z,91.39
2018-02-10T03:04:12.842Z,91.39
2018-02-10T03:05:12.839Z,90.63
2018-02-10T03:06:12.842Z,90.91
2018-02-10T03:07:12.842Z,90.72
2018-02-10T03:08:12.833Z,90.63
2018-02-10T03:09:12.831Z,91.10
2018-02-10T03:10:12.842Z,90.91
2018-02-10T03:11:12.812Z,91.29
2018-02-10T03:12:12.812Z,91.20
2018-02-10T03:13:12.817Z,91.29
2018-02-10T03:14:12.825Z,91.10
2018-02-10T03:15:12.908Z,91.58
2018-02-10T03:16:12.821Z,91.29
2018-02-10T03:17:12.795Z,91.48
2018-02-10T03:18:12.801Z,90.91
2018-02-10T03:19:12.795Z,91.20
2018-02-10T03:20:12.800Z,91.48
2018-02-10T03:21:12.784Z,91.58
2018-02-10T03:22:12.799Z,91.67
2018-02-10T03:23:12.813Z,91.39
2018-02-10T03:24:12.796Z,91.29
2018-02-10T03:25:12.772Z,91.29
2018-02-10T03:26:12.772Z,91.48
2018-02-10T03:27:12.784Z,91.48
2018-02-10T03:28:12.767Z,91.53
2018-02-10T03:29:12.758Z,91.48
2018-02-10T03:30:12.759Z,91.96
2018-02-10T03:31:12.753Z,91.86
2018-02-10T03:32:12.766Z,91.77
2018-02-10T03:33:13.702Z,91.86
2018-02-10T03:34:12.758Z,91.48
2018-02-10T03:35:12.774Z,91.24
2018-02-10T03:36:12.749Z,91.24
2018-02-10T03:37:12.754Z,91.05
2018-02-10T03:38:12.749Z,91.34
2018-02-10T03:39:12.729Z,91.43
2018-02-10T03:40:12.734Z,91.53
2018-02-10T03:41:12.726Z,91.34
2018-02-10T03:42:12.733Z,91.05
2018-02-10T03:43:12.718Z,91.34
2018-02-10T03:44:12.720Z,91.43
2018-02-10T03:45:12.725Z,91.81
2018-02-10T03:46:12.709Z,91.53
2018-02-10T03:47:12.724Z,91.34
2018-02-10T03:48:12.723Z,91.53
2018-02-10T03:49:12.718Z,91.81
2018-02-10T03:50:12.732Z,91.05
2018-02-10T03:51:12.728Z,91.15
2018-02-10T03:52:12.693Z,91.43
2018-02-10T03:53:12.696Z,90.96
2018-02-10T03:54:12.698Z,91.34
2018-02-10T03:55:12.699Z,91.05
2018-02-10T03:56:12.697Z,91.43
2018-02-10T03:57:12.702Z,91.34
2018-02-10T03:58:12.686Z,91.43
2018-02-10T03:59:12.696Z,92.00
2018-02-10T04:00:12.673Z,92.10
2018-02-10T04:01:12.671Z,91.43
2018-02-10T04:02:12.718Z,92.10
2018-02-10T04:03:12.670Z,91.91
2018-02-10T04:04:12.790Z,91.81
2018-02-10T04:05:12.659Z,91.81
2018-02-10T04:06:12.660Z,91.72
2018-02-10T04:07:12.660Z,91.81
2018-02-10T04:08:12.651Z,91.53
2018-02-10T04:09:12.646Z,91.53
2018-02-10T04:10:12.669Z,91.81
2018-02-10T04:11:12.643Z,91.53
2018-02-10T04:12:12.647Z,92.47
2018-02-10T04:13:12.659Z,91.72
2018-02-10T04:14:12.656Z,92.47
2018-02-10T04:15:13.202Z,92.57
2018-02-10T04:16:12.653Z,92.38
2018-02-10T04:17:12.631Z,92.19
2018-02-10T04:18:12.632Z,92.47
2018-02-10T04:19:12.633Z,92.57
2018-02-10T04:20:12.622Z,92.47
2018-02-10T04:21:12.625Z,92.38
2018-02-10T04:22:12.621Z,91.72
2018-02-10T04:23:12.624Z,92.47
2018-02-10T04:24:12.613Z,92.47
2018-02-10T04:25:12.606Z,92.00
2018-02-10T04:26:12.623Z,92.47
2018-02-10T04:27:12.606Z,92.57
2018-02-10T04:28:12.606Z,92.85
2018-02-10T04:29:12.605Z,92.76
2018-02-10T04:30:13.213Z,92.94
2018-02-10T04:31:12.599Z,93.99
2018-02-10T04:32:12.606Z,94.08
2018-02-10T04:33:12.586Z,94.18
2018-02-10T04:34:12.668Z,94.74
2018-02-10T04:35:12.598Z,94.65
2018-02-10T04:36:13.204Z,94.37
2018-02-10T04:37:12.595Z,94.37
2018-02-10T04:38:12.602Z,95.21
2018-02-10T04:39:12.580Z,95.88
2018-02-10T04:40:12.685Z,96.26
2018-02-10T04:41:12.600Z,97.02
2018-02-10T04:42:12.566Z,96.92
2018-02-10T04:43:12.618Z,97.77
2018-02-10T04:44:12.561Z,98.44
2018-02-10T04:45:12.553Z,99.19
2018-02-10T04:46:12.556Z,99.29
2018-02-10T04:47:12.554Z,99.95
2018-02-10T04:48:12.559Z,99.99
2018-02-10T04:49:12.590Z,99.99
2018-02-10T04:50:12.578Z,99.99
2018-02-10T04:51:12.549Z,99.99
2018-02-10T04:52:12.542Z,99.99
2018-02-10T04:53:12.535Z,99.99
2018-02-10T04:54:12.533Z,99.99
2018-02-10T04:55:12.536Z,99.99
2018-02-10T04:56:12.529Z,99.99
2018-02-10T04:57:12.519Z,99.99
2018-02-10T04:58:12.544Z,99.99
2018-02-10T04:59:13.210Z,99.99
2018-02-10T05:00:12.529Z,99.99
2018-02-10T05:01:12.514Z,99.99
2018-02-10T05:02:12.554Z,99.99
2018-02-10T05:03:12.516Z,99.99
2018-02-10T05:04:12.528Z,99.99
2018-02-10T05:05:12.546Z,99.99
2018-02-10T05:06:12.499Z,99.99
2018-02-10T05:07:12.499Z,99.99
2018-02-10T05:08:12.491Z,99.99
2018-02-10T05:09:12.505Z,99.99
2018-02-10T05:10:12.496Z,99.99
2018-02-10T05:11:12.713Z,99.99
2018-02-10T05:12:12.484Z,99.99
2018-02-10T05:13:12.477Z,99.99
2018-02-10T05:14:12.511Z,99.99
2018-02-10T05:15:12.503Z,99.99
2018-02-10T05:16:12.503Z,99.99
2018-02-10T05:17:12.468Z,99.99
2018-02-10T05:18:12.466Z,99.99
2018-02-10T05:19:12.487Z,99.99
2018-02-10T05:20:12.489Z,99.99
2018-02-10T05:21:12.488Z,99.99
2018-02-10T05:22:12.485Z,99.99
2018-02-10T05:23:12.458Z,99.99
2018-02-10T05:24:12.453Z,99.99
2018-02-10T05:25:12.456Z,99.99
2018-02-10T05:26:12.455Z,99.99
2018-02-10T05:27:12.455Z,99.99
2018-02-10T05:28:12.447Z,99.99
2018-02-10T05:29:12.448Z,99.99
2018-02-10T05:30:12.431Z,99.99
2018-02-10T05:31:12.497Z,99.99
2018-02-10T05:32:12.434Z,99.99
2018-02-10T05:33:12.479Z,99.99
2018-02-10T05:34:12.435Z,99.99
2018-02-10T05:35:12.421Z,99.99
2018-02-10T05:36:12.478Z,99.99
2018-02-10T05:37:12.467Z,99.99
2018-02-10T05:38:12.417Z,99.99
2018-02-10T05:39:12.485Z,99.99
2018-02-10T05:40:12.424Z,99.99
2018-02-10T05:41:12.415Z,99.99
2018-02-10T05:42:12.412Z,99.99
2018-02-10T05:43:13.214Z,99.99
2018-02-10T05:44:12.428Z,99.99
2018-02-10T05:45:12.412Z,99.99
2018-02-10T05:46:12.491Z,99.99
2018-02-10T05:47:12.398Z,99.99
2018-02-10T05:48:12.396Z,99.99
2018-02-10T05:49:12.405Z,99.99
2018-02-10T05:50:12.389Z,99.99
2018-02-10T05:51:12.393Z,99.99
2018-02-10T05:52:12.391Z,99.99
2018-02-10T05:53:12.373Z,99.99
2018-02-10T05:54:12.397Z,99.99
2018-02-10T05:55:12.362Z,99.99
2018-02-10T05:56:12.386Z,99.99
2018-02-10T05:57:12.370Z,99.99
2018-02-10T05:58:12.380Z,99.99
2018-02-10T05:59:13.219Z,99.99
2018-02-10T06:00:12.380Z,99.99
2018-02-10T06:01:12.362Z,99.99
2018-02-10T06:02:12.362Z,99.99
2018-02-10T06:03:12.354Z,99.99
2018-02-10T06:04:12.349Z,99.99
2018-02-10T06:05:12.360Z,99.99
2018-02-10T06:06:12.357Z,99.99
2018-02-10T06:07:12.351Z,99.99
2018-02-10T06:08:12.344Z,99.99
2018-02-10T06:09:12.353Z,99.99
2018-02-10T06:10:12.336Z,99.99
2018-02-10T06:11:12.332Z,99.99
2018-02-10T06:12:12.329Z,99.99
2018-02-10T06:13:12.322Z,99.99
2018-02-10T06:14:12.320Z,99.99
2018-02-10T06:15:12.320Z,99.99
2018-02-10T06:16:12.340Z,99.99
2018-02-10T06:17:12.325Z,99.99
2018-02-10T06:18:12.309Z,99.99
2018-02-10T06:19:12.331Z,99.99
2018-02-10T06:20:12.333Z,99.99
2018-02-10T06:21:12.372Z,99.99
2018-02-10T06:22:12.330Z,99.99
2018-02-10T06:23:12.298Z,99.99
2018-02-10T06:24:12.309Z,99.99
2018-02-10T06:25:12.289Z,99.99
2018-02-10T06:26:12.302Z,99.99
2018-02-10T06:27:12.296Z,99.99
2018-02-10T06:28:12.286Z,99.99
2018-02-10T06:29:12.294Z,99.99
2018-02-10T06:30:12.295Z,99.99
2018-02-10T06:31:12.292Z,99.99
2018-02-10T06:32:12.293Z,99.99
2018-02-10T06:33:12.296Z,99.99
2018-02-10T06:34:12.277Z,99.99
2018-02-10T06:35:12.269Z,99.99
2018-02-10T06:36:12.264Z,99.99
2018-02-10T06:37:12.282Z,99.99
2018-02-10T06:38:12.287Z,99.99
2018-02-10T06:39:12.251Z,99.99
2018-02-10T06:40:12.259Z,99.99
2018-02-10T06:41:12.261Z,99.99
2018-02-10T06:42:12.248Z,99.99
2018-02-10T06:43:12.265Z,99.99
2018-02-10T06:44:12.240Z,99.99
2018-02-10T06:45:12.236Z,99.99
2018-02-10T06:46:12.359Z,99.99
2018-02-10T06:47:12.281Z,99.99
2018-02-10T06:48:12.252Z,99.99
2018-02-10T06:49:12.230Z,99.99
2018-02-10T06:50:12.257Z,99.99
2018-02-10T06:51:12.246Z,99.99
2018-02-10T06:52:12.230Z,99.99
2018-02-10T06:53:12.234Z,99.99
2018-02-10T06:54:12.216Z,99.99
2018-02-10T06:55:12.216Z,99.99
2018-02-10T06:56:12.233Z,99.99
2018-02-10T06:57:12.215Z,99.99
2018-02-10T06:58:12.222Z,99.99
2018-02-10T06:59:12.211Z,99.99
2018-02-10T07:00:12.229Z,99.99
2018-02-10T07:01:12.200Z,99.99
2018-02-10T07:02:12.198Z,99.99
2018-02-10T07:03:12.205Z,99.99
2018-02-10T07:04:12.742Z,99.99
2018-02-10T07:05:12.193Z,99.99
2018-02-10T07:06:12.193Z,99.99
2018-02-10T07:07:12.187Z,99.99
2018-02-10T07:08:12.201Z,99.99
2018-02-10T07:09:12.209Z,99.99
2018-02-10T07:10:12.181Z,99.99
2018-02-10T07:11:12.193Z,99.99
2018-02-10T07:12:12.182Z,99.99
2018-02-10T07:13:12.166Z,99.99
2018-02-10T07:14:12.166Z,99.99
2018-02-10T07:15:12.191Z,99.99
2018-02-10T07:16:12.162Z,99.99
2018-02-10T07:17:12.739Z,99.99
2018-02-10T07:18:12.181Z,99.99
2018-02-10T07:19:12.246Z,99.99
2018-02-10T07:20:12.161Z,99.99
2018-02-10T07:21:12.151Z,99.99
2018-02-10T07:22:12.150Z,99.99
2018-02-10T07:23:12.153Z,99.99
2018-02-10T07:24:12.161Z,99.99
2018-02-10T07:25:12.163Z,99.99
2018-02-10T07:26:12.162Z,99.99
2018-02-10T07:27:12.132Z,99.99
2018-02-10T07:28:12.123Z,99.99
2018-02-10T07:29:12.148Z,99.99
2018-02-10T07:30:12.140Z,99.99
2018-02-10T07:31:12.152Z,99.99
2018-02-10T07:32:12.183Z,99.99
2018-02-10T07:33:12.188Z,99.99
2018-02-10T07:34:12.115Z,99.99
2018-02-10T07:35:12.124Z,99.99
2018-02-10T07:36:12.128Z,99.99
2018-02-10T07:37:12.100Z,99.99
2018-02-10T07:38:12.167Z,99.99
2018-02-10T07:39:12.118Z,99.99
2018-02-10T07:40:12.124Z,99.99
2018-02-10T07:41:12.109Z,99.99
2018-02-10T07:42:12.098Z,99.99
2018-02-10T07:43:12.092Z,99.99
2018-02-10T07:44:12.119Z,99.99
2018-02-10T07:45:12.086Z,99.99
2018-02-10T07:46:12.144Z,99.99
2018-02-10T07:47:12.116Z,99.99
2018-02-10T07:48:12.118Z,99.99
2018-02-10T07:49:12.093Z,99.99
2018-02-10T07:50:12.075Z,99.99
2018-02-10T07:51:12.734Z,99.99
2018-02-10T07:52:12.099Z,99.99
2018-02-10T07:53:12.083Z,99.99
2018-02-10T07:54:12.073Z,99.99
2018-02-10T07:55:12.064Z,99.99
2018-02-10T07:56:12.057Z,99.99
2018-02-10T07:57:12.052Z,99.99
2018-02-10T07:58:12.056Z,99.99
2018-02-10T07:59:12.066Z,99.99
2018-02-10T08:00:12.061Z,99.99
2018-02-10T08:01:12.102Z,99.99
2018-02-10T08:02:12.051Z,99.99
2018-02-10T08:03:12.079Z,99.99
2018-02-10T08:04:12.733Z,99.99
2018-02-10T08:05:12.045Z,99.99
2018-02-10T08:06:12.042Z,99.99
2018-02-10T08:07:12.034Z,99.99
2018-02-10T08:08:12.038Z,99.99
2018-02-10T08:09:12.031Z,99.99
2018-02-10T08:10:12.031Z,99.99
2018-02-10T08:11:12.041Z,99.99
2018-02-10T08:12:12.028Z,99.99
2018-02-10T08:13:12.014Z,99.99
2018-02-10T08:14:12.022Z,99.99
2018-02-10T08:15:12.042Z,99.99
2018-02-10T08:16:12.011Z,99.99
2018-02-10T08:17:12.097Z,99.99
2018-02-10T08:18:12.002Z,99.99
2018-02-10T08:19:12.019Z,99.99
2018-02-10T08:20:12.024Z,99.99
2018-02-10T08:21:12.027Z,99.99
2018-02-10T08:22:12.034Z,99.99
2018-02-10T08:23:12.008Z,99.99
2018-02-10T08:24:12.014Z,99.99
2018-02-10T08:25:12.031Z,99.99
2018-02-10T08:26:11.997Z,99.99
2018-02-10T08:27:11.994Z,99.99
2018-02-10T08:28:11.982Z,99.99
2018-02-10T08:29:12.022Z,99.99
2018-02-10T08:30:11.986Z,99.99
2018-02-10T08:31:12.030Z,99.99
2018-02-10T08:32:11.981Z,99.99
2018-02-10T08:33:11.976Z,99.99
2018-02-10T08:34:11.969Z,99.99
2018-02-10T08:35:11.990Z,99.99
2018-02-10T08:36:11.996Z,99.99
2018-02-10T08:37:11.981Z,99.99
2018-02-10T08:38:11.966Z,99.99
2018-02-10T08:39:11.978Z,99.99
2018-02-10T08:40:11.959Z,99.99
2018-02-10T08:41:11.968Z,99.99
2018-02-10T08:42:11.952Z,99.99
2018-02-10T08:43:11.970Z,99.99
2018-02-10T08:44:11.961Z,99.99
2018-02-10T08:45:11.950Z,99.99
2018-02-10T08:46:11.942Z,99.99
2018-02-10T08:47:11.950Z,99.99
2018-02-10T08:48:11.937Z,99.99
2018-02-10T08:49:11.961Z,99.99
2018-02-10T08:50:11.943Z,99.99
2018-02-10T08:51:12.739Z,99.99
2018-02-10T08:52:11.927Z,99.99
2018-02-10T08:53:11.932Z,99.99
2018-02-10T08:54:11.955Z,99.99
2018-02-10T08:55:11.919Z,99.99
2018-02-10T08:56:11.926Z,99.99
2018-02-10T08:57:11.928Z,99.99
2018-02-10T08:58:11.919Z,99.99
2018-02-10T08:59:11.916Z,99.99
2018-02-10T09:00:11.912Z,99.99
2018-02-10T09:01:11.984Z,99.99
2018-02-10T09:02:11.948Z,99.99
2018-02-10T09:03:11.906Z,99.99
2018-02-10T09:04:11.930Z,99.99
2018-02-10T09:05:11.894Z,99.99
2018-02-10T09:06:11.922Z,99.99
2018-02-10T09:07:11.897Z,99.99
2018-02-10T09:08:11.893Z,99.99
2018-02-10T09:09:11.932Z,99.99
2018-02-10T09:10:11.890Z,99.99
2018-02-10T09:11:11.927Z,99.99
2018-02-10T09:12:11.881Z,99.99
2018-02-10T09:13:11.880Z,99.99
2018-02-10T09:14:11.900Z,99.99
2018-02-10T09:15:11.919Z,99.99
2018-02-10T09:16:11.878Z,99.99
2018-02-10T09:17:11.883Z,99.99
2018-02-10T09:18:11.892Z,99.99
2018-02-10T09:19:11.868Z,99.99
2018-02-10T09:20:11.872Z,99.99
2018-02-10T09:21:11.893Z,99.99
2018-02-10T09:22:11.886Z,99.99
2018-02-10T09:23:11.878Z,99.99
2018-02-10T09:24:11.871Z,99.99
2018-02-10T09:25:11.863Z,99.99
2018-02-10T09:26:11.857Z,99.99
2018-02-10T09:27:11.855Z,99.99
2018-02-10T09:28:11.856Z,99.99
2018-02-10T09:29:12.744Z,99.99
2018-02-10T09:30:11.845Z,99.99
2018-02-10T09:31:11.869Z,99.99
2018-02-10T09:32:11.853Z,99.99
2018-02-10T09:33:11.859Z,99.99
2018-02-10T09:34:11.846Z,99.99
2018-02-10T09:35:11.835Z,99.99
2018-02-10T09:36:11.835Z,99.99
2018-02-10T09:37:11.830Z,99.99
2018-02-10T09:38:11.913Z,99.99
2018-02-10T09:39:11.846Z,99.99
2018-02-10T09:40:11.821Z,99.99
2018-02-10T09:41:11.819Z,99.99
2018-02-10T09:42:11.827Z,99.99
2018-02-10T09:43:11.824Z,99.99
2018-02-10T09:44:11.826Z,99.99
2018-02-10T09:45:11.844Z,99.99
2018-02-10T09:46:11.819Z,99.99
2018-02-10T09:47:11.826Z,99.99
2018-02-10T09:48:11.812Z,99.99
2018-02-10T09:49:11.827Z,99.99
2018-02-10T09:50:11.818Z,99.99
2018-02-10T09:51:12.753Z,99.99
2018-02-10T09:52:11.838Z,99.99
2018-02-10T09:53:11.802Z,99.99
2018-02-10T09:54:11.797Z,99.99
2018-02-10T09:55:11.801Z,99.99
2018-02-10T09:56:11.823Z,99.99
2018-02-10T09:57:11.802Z,99.99
2018-02-10T09:58:11.917Z,99.99
2018-02-10T09:59:11.786Z,99.99
2018-02-10T10:00:11.790Z,99.99
2018-02-10T10:01:11.789Z,99.99
2018-02-10T10:02:11.789Z,99.99
2018-02-10T10:03:11.783Z,99.99
2018-02-10T10:04:12.749Z,99.99
2018-02-10T10:05:11.816Z,99.99
2018-02-10T10:06:11.787Z,99.99
2018-02-10T10:07:11.788Z,99.99
2018-02-10T10:08:11.776Z,99.99
2018-02-10T10:09:11.797Z,99.99
2018-02-10T10:10:11.770Z,99.99
2018-02-10T10:11:11.801Z,99.99
2018-02-10T10:12:11.774Z,99.99
2018-02-10T10:13:11.821Z,99.99
2018-02-10T10:14:11.776Z,99.99
2018-02-10T10:15:11.759Z,99.99
2018-02-10T10:16:11.772Z,99.99
2018-02-10T10:17:11.868Z,99.99
2018-02-10T10:18:11.773Z,99.99
2018-02-10T10:19:11.758Z,99.99
2018-02-10T10:20:11.754Z,99.99
2018-02-10T10:21:11.796Z,99.99
2018-02-10T10:22:11.764Z,99.99
2018-02-10T10:23:11.749Z,99.99
2018-02-10T10:24:11.844Z,99.99
2018-02-10T10:25:11.770Z,99.99
2018-02-10T10:26:11.741Z,99.99
2018-02-10T10:27:11.751Z,99.99
2018-02-10T10:28:11.738Z,99.99
2018-02-10T10:29:11.756Z,99.99
2018-02-10T10:30:11.727Z,99.99
2018-02-10T10:31:11.730Z,99.99
2018-02-10T10:32:11.725Z,99.99
2018-02-10T10:33:11.744Z,99.99
2018-02-10T10:34:11.773Z,99.99
2018-02-10T10:35:11.821Z,99.99
2018-02-10T10:36:11.722Z,99.99
2018-02-10T10:37:11.751Z,99.99
2018-02-10T10:38:11.719Z,99.99
2018-02-10T10:39:11.723Z,99.99
2018-02-10T10:40:11.729Z,99.99
2018-02-10T10:41:11.703Z,99.99
2018-02-10T10:42:11.708Z,99.99
2018-02-10T10:43:11.720Z,99.99
2018-02-10T10:44:11.709Z,99.99
2018-02-10T10:45:11.704Z,99.99
2018-02-10T10:46:11.712Z,99.99
2018-02-10T10:47:11.730Z,99.99
2018-02-10T10:48:11.696Z,99.99
2018-02-10T10:49:11.696Z,99.99
2018-02-10T10:50:11.704Z,99.99
2018-02-10T10:51:11.705Z,99.99
2018-02-10T10:52:11.715Z,99.99
2018-02-10T10:53:11.697Z,99.99
2018-02-10T10:54:11.756Z,99.99
2018-02-10T10:55:11.688Z,99.99
2018-02-10T10:56:11.680Z,99.99
2018-02-10T10:57:11.682Z,99.99
2018-02-10T10:58:11.704Z,99.99
2018-02-10T10:59:11.667Z,99.99
2018-02-10T11:00:11.690Z,99.99
2018-02-10T11:01:11.677Z,99.99
2018-02-10T11:02:11.681Z,99.99
2018-02-10T11:03:11.674Z,99.99
2018-02-10T11:04:11.672Z,99.99
2018-02-10T11:05:11.672Z,99.99
2018-02-10T11:06:11.662Z,99.99
2018-02-10T11:07:11.659Z,99.99
2018-02-10T11:08:11.665Z,99.99
2018-02-10T11:09:11.670Z,99.99
2018-02-10T11:10:11.668Z,99.99
2018-02-10T11:11:11.649Z,99.99
2018-02-10T11:12:11.668Z,99.99
2018-02-10T11:13:11.645Z,99.99
2018-02-10T11:14:11.662Z,99.99
2018-02-10T11:15:11.651Z,99.99
2018-02-10T11:16:11.663Z,99.99
2018-02-10T11:17:11.653Z,99.99
2018-02-10T11:18:11.637Z,99.99
2018-02-10T11:19:12.260Z,99.99
2018-02-10T11:20:11.632Z,99.99
2018-02-10T11:21:11.652Z,99.99
2018-02-10T11:22:11.697Z,99.99
2018-02-10T11:23:11.640Z,99.99
2018-02-10T11:24:11.622Z,99.99
2018-02-10T11:25:11.649Z,99.99
2018-02-10T11:26:11.638Z,99.99
2018-02-10T11:27:11.647Z,99.99
2018-02-10T11:28:11.643Z,99.99
2018-02-10T11:29:11.613Z,99.99
2018-02-10T11:30:11.613Z,99.99
2018-02-10T11:31:11.619Z,99.99
2018-02-10T11:32:11.614Z,99.99
2018-02-10T11:33:11.605Z,99.99
2018-02-10T11:34:11.613Z,99.99
2018-02-10T11:35:11.657Z,99.99
2018-02-10T11:36:11.616Z,99.99
2018-02-10T11:37:11.606Z,99.99
2018-02-10T11:38:11.599Z,99.99
2018-02-10T11:39:11.607Z,99.99
2018-02-10T11:40:11.715Z,99.99
2018-02-10T11:41:11.590Z,99.99
2018-02-10T11:42:11.598Z,99.99
2018-02-10T11:43:11.591Z,99.99
2018-02-10T11:44:11.595Z,99.99
2018-02-10T11:45:11.609Z,99.99
2018-02-10T11:46:11.614Z,99.99
2018-02-10T11:47:11.612Z,99.99
2018-02-10T11:48:11.599Z,99.99
2018-02-10T11:49:11.602Z,99.99
2018-02-10T11:50:11.584Z,99.99
2018-02-10T11:51:11.626Z,99.99
2018-02-10T11:52:11.579Z,99.99
2018-02-10T11:53:11.592Z,99.99
2018-02-10T11:54:11.573Z,99.99
2018-02-10T11:55:11.578Z,99.99
2018-02-10T11:56:11.577Z,99.99
2018-02-10T11:57:11.582Z,99.99
2018-02-10T11:58:11.603Z,99.99
2018-02-10T11:59:11.575Z,99.99
2018-02-10T12:00:11.565Z,99.99
2018-02-10T12:01:11.565Z,99.99
2018-02-10T12:02:11.562Z,99.99
2018-02-10T12:03:11.574Z,99.99
2018-02-10T12:04:11.566Z,99.99
2018-02-10T12:05:11.576Z,99.99
2018-02-10T12:06:11.570Z,99.99
2018-02-10T12:07:11.560Z,99.99
2018-02-10T12:08:11.568Z,99.99
2018-02-10T12:09:11.563Z,99.99
2018-02-10T12:10:11.613Z,99.99
2018-02-10T12:11:11.562Z,99.99
2018-02-10T12:12:11.573Z,99.99
2018-02-10T12:13:11.566Z,99.99
2018-02-10T12:14:11.541Z,99.99
2018-02-10T12:15:11.541Z,99.99
2018-02-10T12:16:11.543Z,99.99
2018-02-10T12:17:11.556Z,99.99
2018-02-10T12:18:11.545Z,99.99
2018-02-10T12:19:11.561Z,99.99
2018-02-10T12:20:11.553Z,99.99
2018-02-10T12:21:11.553Z,99.99
2018-02-10T12:22:11.542Z,99.99
2018-02-10T12:23:11.543Z,99.99
2018-02-10T12:24:11.549Z,99.99
2018-02-10T12:25:11.525Z,99.99
2018-02-10T12:26:11.517Z,99.99
2018-02-10T12:27:11.655Z,99.99
2018-02-10T12:28:11.544Z,99.99
2018-02-10T12:29:11.533Z,99.99
2018-02-10T12:30:11.534Z,99.99
2018-02-10T12:31:11.509Z,99.99
2018-02-10T12:32:11.536Z,99.99
2018-02-10T12:33:11.544Z,99.99
2018-02-10T12:34:11.515Z,99.99
2018-02-10T12:35:11.534Z,99.99
2018-02-10T12:36:11.528Z,99.99
2018-02-10T12:37:11.506Z,99.99
2018-02-10T12:38:11.496Z,99.99
2018-02-10T12:39:11.501Z,99.99
2018-02-10T12:40:11.497Z,99.99
2018-02-10T12:41:11.499Z,99.99
2018-02-10T12:42:11.506Z,99.99
2018-02-10T12:43:11.500Z,99.99
2018-02-10T12:44:11.511Z,99.99
2018-02-10T12:45:11.496Z,99.99
2018-02-10T12:46:11.493Z,99.99
2018-02-10T12:47:11.527Z,99.99
2018-02-10T12:48:11.512Z,99.99
2018-02-10T12:49:11.502Z,99.99
2018-02-10T12:50:11.487Z,99.99
2018-02-10T12:51:11.482Z,99.99
2018-02-10T12:52:11.493Z,99.99